createdAt,value
2022-12-01T00:01:16.850Z,57.45
2022-12-01T00:03:44.107Z,57.25
2022-12-01T00:06:20.620Z,60.30
2022-12-01T00:09:08.535Z,58.92
2022-12-01T00:11:37.875Z,57.70
2022-12-01T00:14:06.234Z,58.20
2022-12-01T00:16:33.955Z,61.17
2022-12-01T00:19:01.460Z,57.83
2022-12-01T00:21:28.681Z,57.67
2022-12-01T00:23:57.536Z,61.40
2022-12-01T00:26:26.420Z,56.55
2022-12-01T00:28:55.895Z,55.50
2022-12-01T00:31:23.806Z,56.97
2022-12-01T00:33:51.352Z,59.08
2022-12-01T00:36:18.647Z,58.05
2022-12-01T00:38:46.583Z,55.38
2022-12-01T00:41:14.121Z,57.22
2022-12-01T00:43:41.309Z,56.60
2022-12-01T00:46:08.811Z,57.50
2022-12-01T00:48:36.067Z,58.33
2022-12-01T00:51:03.357Z,57.28
2022-12-01T00:53:30.978Z,56.60
2022-12-01T00:55:58.127Z,58.50
2022-12-01T00:58:25.535Z,57.55
2022-12-01T01:01:00.926Z,58.58
2022-12-01T01:03:29.532Z,57.15
2022-12-01T01:06:02.982Z,58.15
2022-12-01T01:08:30.137Z,56.33
2022-12-01T01:11:00.244Z,54.78
2022-12-01T01:13:27.678Z,56.20
2022-12-01T01:16:00.224Z,54.92
2022-12-01T01:18:27.800Z,54.03
2022-12-01T01:20:59.708Z,56.15
2022-12-01T01:23:27.426Z,58.87
2022-12-01T01:26:00.164Z,55.75
2022-12-01T01:28:27.320Z,57.42
2022-12-01T01:30:54.549Z,58.42
2022-12-01T01:33:21.765Z,57.80
2022-12-01T01:35:48.996Z,59.72
2022-12-01T01:38:16.190Z,56.77
2022-12-01T01:40:45.010Z,58.53
2022-12-01T01:43:17.138Z,58.80
2022-12-01T01:45:44.591Z,151.77
2022-12-01T01:48:14.318Z,85.47
2022-12-01T01:50:41.896Z,89.72
2022-12-01T01:53:13.621Z,68.35
2022-12-01T01:55:40.924Z,61.73
2022-12-01T01:58:09.731Z,58.67
2022-12-01T02:00:40.119Z,58.45
2022-12-01T02:03:09.726Z,59.17
2022-12-01T02:05:38.198Z,56.35
2022-12-01T02:08:12.262Z,57.55
2022-12-01T02:10:54.575Z,57.67
2022-12-01T02:13:38.920Z,57.30
2022-12-01T02:16:24.071Z,56.53
2022-12-01T02:19:06.448Z,56.10
2022-12-01T02:22:03.033Z,57.17
2022-12-01T02:24:47.997Z,56.67
2022-12-01T02:27:25.106Z,59.10
2022-12-01T02:30:25.324Z,57.00
2022-12-01T02:33:02.234Z,55.45
2022-12-01T02:35:52.390Z,55.83
2022-12-01T02:38:30.741Z,56.63
2022-12-01T02:41:07.879Z,57.10
2022-12-01T02:43:49.402Z,56.75
2022-12-01T02:46:45.289Z,57.43
2022-12-01T02:49:27.432Z,57.17
2022-12-01T02:51:56.326Z,55.22
2022-12-01T02:54:25.509Z,52.42
2022-12-01T02:56:53.642Z,54.08
2022-12-01T02:59:20.877Z,54.20
2022-12-01T03:02:06.128Z,51.55
2022-12-01T03:04:44.380Z,51.70
2022-12-01T03:07:44.396Z,51.38
2022-12-01T03:10:35.382Z,50.42
2022-12-01T03:13:32.644Z,48.80
2022-12-01T03:16:29.331Z,47.55
2022-12-01T03:19:21.613Z,47.90
2022-12-01T03:22:10.395Z,47.30
2022-12-01T03:24:41.174Z,48.55
2022-12-01T03:27:11.211Z,47.38
2022-12-01T03:29:43.193Z,48.97
2022-12-01T03:32:27.409Z,46.33
2022-12-01T03:34:58.747Z,47.00
2022-12-01T03:37:42.792Z,46.78
2022-12-01T03:40:15.103Z,42.63
2022-12-01T03:42:57.183Z,44.63
2022-12-01T03:45:35.806Z,44.13
2022-12-01T03:48:03.227Z,45.50
2022-12-01T03:50:39.389Z,43.50
2022-12-01T03:53:19.506Z,43.92
2022-12-01T03:55:53.300Z,44.43
2022-12-01T03:58:25.944Z,43.90
2022-12-01T04:00:57.448Z,42.83
2022-12-01T04:03:26.090Z,41.80
2022-12-01T04:05:53.413Z,40.33
2022-12-01T04:08:20.790Z,42.43
2022-12-01T04:10:47.948Z,39.67
2022-12-01T04:13:25.464Z,39.85
2022-12-01T04:15:54.081Z,39.20
2022-12-01T04:18:22.096Z,39.33
2022-12-01T04:20:49.980Z,39.40
2022-12-01T04:23:35.754Z,43.17
2022-12-01T04:26:04.626Z,39.90
2022-12-01T04:28:31.964Z,41.70
2022-12-01T04:30:59.172Z,43.55
2022-12-01T04:33:26.380Z,43.57
2022-12-01T04:36:00.280Z,41.58
2022-12-01T04:38:30.828Z,46.20
2022-12-01T04:40:58.714Z,45.80
2022-12-01T04:43:25.842Z,45.63
2022-12-01T04:45:53.035Z,46.78
2022-12-01T04:48:20.218Z,46.83
2022-12-01T04:50:49.521Z,51.00
2022-12-01T04:53:16.745Z,51.97
2022-12-01T04:55:43.919Z,52.20
2022-12-01T04:58:11.089Z,52.40
2022-12-01T05:00:38.228Z,53.10
2022-12-01T05:03:07.698Z,56.45
2022-12-01T05:05:38.043Z,55.30
2022-12-01T05:08:05.250Z,54.03
2022-12-01T05:10:36.176Z,54.38
2022-12-01T05:13:04.864Z,56.63
2022-12-01T05:15:32.373Z,55.80
2022-12-01T05:17:59.664Z,56.08
2022-12-01T05:20:46.406Z,56.90
2022-12-01T05:23:16.717Z,58.03
2022-12-01T05:25:46.951Z,56.73
2022-12-01T05:28:14.145Z,55.92
2022-12-01T05:30:41.464Z,57.83
2022-12-01T05:33:08.614Z,57.85
2022-12-01T05:35:35.786Z,59.10
2022-12-01T05:38:07.777Z,61.97
2022-12-01T05:40:36.305Z,59.33
2022-12-01T05:43:04.406Z,56.78
2022-12-01T05:45:32.082Z,58.10
2022-12-01T05:48:00.725Z,58.27
2022-12-01T05:50:29.351Z,58.28
2022-12-01T05:52:56.820Z,60.60
2022-12-01T05:55:23.984Z,59.22
2022-12-01T05:57:51.109Z,58.08
2022-12-01T06:00:18.796Z,56.63
2022-12-01T06:02:46.079Z,56.90
2022-12-01T06:05:13.241Z,57.63
2022-12-01T06:07:40.748Z,57.03
2022-12-01T06:10:09.959Z,56.55
2022-12-01T06:12:37.923Z,56.42
2022-12-01T06:15:07.020Z,56.70
2022-12-01T06:17:39.893Z,56.90
2022-12-01T06:20:08.683Z,61.15
2022-12-01T06:22:35.901Z,57.88
2022-12-01T06:25:03.354Z,57.33
2022-12-01T06:27:30.550Z,57.35
2022-12-01T06:29:57.760Z,57.17
2022-12-01T06:32:24.898Z,61.30
2022-12-01T06:34:52.093Z,56.28
2022-12-01T06:37:19.325Z,56.15
2022-12-01T06:39:46.684Z,54.97
2022-12-01T06:42:14.151Z,57.60
2022-12-01T06:44:41.345Z,56.67
2022-12-01T06:47:08.465Z,57.20
2022-12-01T06:49:35.715Z,57.38
2022-12-01T06:52:03.033Z,57.40
2022-12-01T06:54:30.263Z,57.45
2022-12-01T06:56:58.494Z,56.97
2022-12-01T06:59:26.133Z,57.37
2022-12-01T07:01:53.701Z,56.55
2022-12-01T07:04:21.117Z,56.33
2022-12-01T07:06:48.328Z,55.80
2022-12-01T07:09:15.498Z,56.17
2022-12-01T07:11:42.664Z,55.90
2022-12-01T07:14:17.726Z,58.50
2022-12-01T07:16:44.928Z,58.33
2022-12-01T07:19:12.146Z,56.05
2022-12-01T07:21:39.329Z,58.67
2022-12-01T07:24:06.971Z,56.37
2022-12-01T07:26:34.303Z,57.83
2022-12-01T07:29:01.440Z,57.58
2022-12-01T07:31:28.633Z,56.77
2022-12-01T07:33:55.987Z,57.28
2022-12-01T07:36:23.108Z,57.27
2022-12-01T07:38:50.250Z,56.97
2022-12-01T07:41:21.797Z,56.55
2022-12-01T07:43:51.291Z,57.33
2022-12-01T07:46:23.817Z,57.72
2022-12-01T07:48:52.713Z,54.65
2022-12-01T07:51:20.883Z,54.28
2022-12-01T07:53:49.552Z,54.47
2022-12-01T07:56:17.908Z,55.38
2022-12-01T07:58:45.231Z,54.55
2022-12-01T08:01:20.734Z,51.30
2022-12-01T08:03:56.015Z,49.95
2022-12-01T08:06:23.999Z,50.22
2022-12-01T08:08:51.902Z,47.77
2022-12-01T08:11:22.535Z,47.00
2022-12-01T08:13:50.656Z,46.35
2022-12-01T08:16:20.511Z,45.88
2022-12-01T08:18:48.053Z,47.00
2022-12-01T08:21:18.464Z,45.47
2022-12-01T08:23:45.979Z,41.67
2022-12-01T08:26:18.500Z,42.92
2022-12-01T08:28:46.727Z,41.70
2022-12-01T08:31:24.359Z,39.28
2022-12-01T08:33:52.409Z,37.75
2022-12-01T08:36:20.694Z,36.47
2022-12-01T08:38:51.778Z,37.63
2022-12-01T08:41:19.565Z,37.80
2022-12-01T08:43:57.990Z,35.92
2022-12-01T08:46:33.565Z,34.63
2022-12-01T08:49:01.413Z,34.15
2022-12-01T08:51:29.311Z,34.50
2022-12-01T08:53:58.064Z,37.38
2022-12-01T08:56:30.045Z,35.00
2022-12-01T08:58:57.990Z,34.72
2022-12-01T09:01:25.978Z,33.22
2022-12-01T09:04:05.231Z,32.28
2022-12-01T09:06:38.343Z,32.95
2022-12-01T09:09:05.639Z,30.85
2022-12-01T09:11:32.921Z,30.70
2022-12-01T09:14:03.837Z,30.08
2022-12-01T09:16:31.498Z,29.45
2022-12-01T09:18:58.777Z,30.45
2022-12-01T09:21:31.129Z,30.35
2022-12-01T09:23:59.276Z,30.00
2022-12-01T09:26:27.486Z,29.93
2022-12-01T09:28:57.912Z,30.65
2022-12-01T09:31:25.647Z,30.17
2022-12-01T09:34:01.432Z,31.65
2022-12-01T09:36:30.408Z,30.23
2022-12-01T09:38:58.290Z,30.52
2022-12-01T09:41:27.568Z,30.37
2022-12-01T09:44:02.215Z,30.77
2022-12-01T09:46:42.254Z,30.90
2022-12-01T09:49:17.478Z,30.87
2022-12-01T09:51:44.921Z,32.05
2022-12-01T09:54:14.594Z,32.23
2022-12-01T09:56:49.435Z,31.33
2022-12-01T09:59:30.957Z,31.63
2022-12-01T10:02:09.198Z,31.83
2022-12-01T10:04:41.200Z,32.43
2022-12-01T10:07:25.590Z,31.85
2022-12-01T10:09:57.707Z,31.58
2022-12-01T10:12:29.284Z,32.35
2022-12-01T10:15:19.185Z,31.95
2022-12-01T10:17:55.316Z,31.60
2022-12-01T10:20:47.243Z,31.40
2022-12-01T10:23:17.454Z,32.05
2022-12-01T10:26:16.063Z,30.70
2022-12-01T10:29:05.965Z,31.58
2022-12-01T10:31:49.678Z,31.63
2022-12-01T10:34:27.942Z,31.90
2022-12-01T10:36:56.853Z,30.80
2022-12-01T10:39:34.425Z,31.08
2022-12-01T10:42:22.991Z,31.57
2022-12-01T10:44:51.157Z,31.65
2022-12-01T10:47:21.407Z,30.70
2022-12-01T10:49:49.330Z,30.93
2022-12-01T10:52:48.430Z,29.65
2022-12-01T10:55:26.234Z,28.73
2022-12-01T10:57:56.651Z,26.17
2022-12-01T11:00:58.543Z,26.27
2022-12-01T11:03:28.080Z,26.17
2022-12-01T11:05:58.050Z,25.85
2022-12-01T11:08:46.523Z,25.45
2022-12-01T11:11:24.844Z,25.77
2022-12-01T11:13:52.318Z,25.73
2022-12-01T11:16:39.583Z,23.98
2022-12-01T11:19:27.350Z,24.75
2022-12-01T11:21:58.516Z,24.33
2022-12-01T11:24:56.947Z,24.33
2022-12-01T11:27:31.489Z,26.00
2022-12-01T11:30:04.804Z,26.33
2022-12-01T11:32:39.858Z,25.90
2022-12-01T11:35:12.951Z,26.05
2022-12-01T11:37:54.784Z,26.08
2022-12-01T11:40:32.448Z,25.65
2022-12-01T11:43:02.728Z,26.58
2022-12-01T11:45:39.147Z,26.63
2022-12-01T11:48:15.369Z,24.80
2022-12-01T11:50:44.498Z,24.88
2022-12-01T11:53:35.291Z,24.70
2022-12-01T11:56:20.780Z,26.08
2022-12-01T11:59:00.731Z,25.63
2022-12-01T12:01:56.071Z,24.52
2022-12-01T12:04:49.110Z,24.05
2022-12-01T12:07:35.131Z,24.10
2022-12-01T12:10:08.109Z,23.00
2022-12-01T12:12:46.770Z,23.23
2022-12-01T12:15:16.700Z,22.95
2022-12-01T12:17:43.829Z,21.47
2022-12-01T12:20:36.874Z,21.60
2022-12-01T12:23:24.608Z,22.27
2022-12-01T12:25:59.880Z,22.02
2022-12-01T12:28:32.619Z,22.23
2022-12-01T12:31:19.701Z,22.42
2022-12-01T12:34:25.415Z,21.07
2022-12-01T12:37:01.773Z,19.27
2022-12-01T12:39:28.884Z,20.23
2022-12-01T12:41:57.689Z,19.47
2022-12-01T12:44:53.114Z,18.30
2022-12-01T12:47:48.790Z,18.05
2022-12-01T12:50:43.626Z,17.33
2022-12-01T12:53:17.889Z,16.53
2022-12-01T12:55:50.573Z,16.03
2022-12-01T12:58:24.373Z,15.60
2022-12-01T13:01:13.636Z,15.47
2022-12-01T13:03:59.996Z,15.40
2022-12-01T13:06:37.188Z,15.85
2022-12-01T13:09:10.517Z,16.20
2022-12-01T13:11:57.317Z,15.25
2022-12-01T13:14:38.536Z,15.97
2022-12-01T13:17:23.243Z,15.50
2022-12-01T13:19:50.673Z,15.80
2022-12-01T13:22:21.663Z,15.93
2022-12-01T13:24:48.917Z,15.40
2022-12-01T13:27:23.296Z,15.65
2022-12-01T13:29:53.557Z,16.25
2022-12-01T13:32:37.597Z,15.85
2022-12-01T13:35:21.418Z,16.23
2022-12-01T13:37:48.880Z,15.20
2022-12-01T13:40:24.745Z,15.68
2022-12-01T13:43:06.945Z,15.23
2022-12-01T13:45:38.201Z,15.27
2022-12-01T13:48:06.788Z,14.65
2022-12-01T13:50:43.829Z,14.77
2022-12-01T13:53:18.794Z,14.23
2022-12-01T13:56:08.025Z,14.45
2022-12-01T13:58:35.218Z,13.90
2022-12-01T14:01:20.980Z,13.67
2022-12-01T14:04:03.624Z,13.35
2022-12-01T14:07:04.777Z,13.43
2022-12-01T14:09:37.949Z,13.48
2022-12-01T14:12:18.816Z,13.10
2022-12-01T14:14:56.969Z,13.68
2022-12-01T14:17:33.871Z,13.07
2022-12-01T14:20:16.372Z,13.65
2022-12-01T14:23:24.105Z,13.88
2022-12-01T14:26:19.316Z,13.67
2022-12-01T14:28:55.430Z,13.50
2022-12-01T14:31:24.003Z,13.45
2022-12-01T14:33:58.842Z,13.30
2022-12-01T14:36:49.262Z,13.52
2022-12-01T14:39:24.013Z,13.73
2022-12-01T14:42:01.186Z,12.90
2022-12-01T14:44:45.776Z,13.25
2022-12-01T14:47:22.602Z,12.95
2022-12-01T14:50:12.211Z,13.10
2022-12-01T14:52:44.241Z,12.60
2022-12-01T14:55:20.756Z,12.90
2022-12-01T14:58:15.066Z,13.18
2022-12-01T15:01:00.330Z,13.23
2022-12-01T15:03:33.396Z,13.13
2022-12-01T15:06:00.643Z,13.70
2022-12-01T15:08:42.130Z,13.83
2022-12-01T15:11:26.015Z,13.38
2022-12-01T15:13:55.800Z,13.43
2022-12-01T15:16:29.234Z,13.60
2022-12-01T15:18:56.738Z,13.10
2022-12-01T15:21:27.051Z,13.70
2022-12-01T15:24:02.742Z,13.80
2022-12-01T15:26:35.976Z,14.18
2022-12-01T15:29:19.274Z,13.70
2022-12-01T15:31:53.946Z,14.80
2022-12-01T15:34:35.136Z,14.07
2022-12-01T15:37:09.639Z,14.47
2022-12-01T15:39:44.591Z,15.00
2022-12-01T15:42:27.306Z,14.38
2022-12-01T15:45:19.321Z,15.73
2022-12-01T15:47:48.991Z,15.98
2022-12-01T15:50:38.656Z,15.20
2022-12-01T15:53:21.682Z,14.75
2022-12-01T15:55:55.591Z,14.93
2022-12-01T15:58:31.313Z,15.05
2022-12-01T16:01:07.299Z,16.37
2022-12-01T16:03:47.108Z,16.50
2022-12-01T16:06:14.468Z,15.97
2022-12-01T16:08:42.071Z,16.10
2022-12-01T16:11:18.499Z,15.73
2022-12-01T16:13:49.276Z,16.15
2022-12-01T16:16:31.208Z,16.00
2022-12-01T16:19:19.216Z,15.90
2022-12-01T16:21:50.554Z,16.00
2022-12-01T16:24:23.259Z,17.23
2022-12-01T16:26:58.595Z,17.45
2022-12-01T16:29:27.232Z,17.92
2022-12-01T16:32:19.454Z,18.13
2022-12-01T16:34:46.506Z,18.88
2022-12-01T16:37:15.194Z,19.40
2022-12-01T16:39:42.904Z,19.83
2022-12-01T16:42:15.328Z,19.77
2022-12-01T16:44:44.622Z,19.80
2022-12-01T16:47:24.754Z,21.23
2022-12-01T16:49:52.768Z,21.20
2022-12-01T16:55:24.740Z,22.17
2022-12-01T16:57:51.935Z,20.10
2022-12-01T17:00:19.488Z,21.67
2022-12-01T17:02:46.825Z,23.17
2022-12-01T17:05:14.209Z,21.70
2022-12-01T17:07:42.080Z,22.02
2022-12-01T17:10:09.865Z,21.48
2022-12-01T17:12:37.064Z,23.05
2022-12-01T17:15:04.864Z,23.37
2022-12-01T17:17:32.077Z,23.75
2022-12-01T17:19:59.263Z,23.00
2022-12-01T17:22:26.419Z,22.83
2022-12-01T17:24:55.441Z,23.90
2022-12-01T17:27:24.547Z,23.80
2022-12-01T17:29:51.826Z,24.42
2022-12-01T17:32:18.958Z,23.40
2022-12-01T17:34:46.230Z,23.23
2022-12-01T17:37:19.045Z,23.20
2022-12-01T17:39:49.537Z,23.05
2022-12-01T17:42:16.708Z,24.95
2022-12-01T17:44:44.178Z,24.15
2022-12-01T17:47:12.092Z,22.23
2022-12-01T17:49:39.392Z,23.92
2022-12-01T17:52:08.124Z,25.27
2022-12-01T17:54:35.409Z,23.45
2022-12-01T17:57:02.579Z,25.15
2022-12-01T17:59:29.777Z,24.95
2022-12-01T18:01:56.979Z,24.53
2022-12-01T18:04:24.392Z,23.13
2022-12-01T18:06:54.214Z,20.97
2022-12-01T18:09:22.116Z,21.92
2022-12-01T18:11:49.752Z,21.93
2022-12-01T18:14:19.607Z,22.00
2022-12-01T18:16:48.572Z,21.90
2022-12-01T18:19:15.855Z,20.20
2022-12-01T18:21:43.082Z,23.50
2022-12-01T18:24:10.328Z,20.95
2022-12-01T18:26:39.914Z,22.98
2022-12-01T18:29:12.687Z,22.15
2022-12-01T18:31:41.127Z,21.88
2022-12-01T18:34:10.104Z,23.05
2022-12-01T18:36:39.174Z,21.45
2022-12-01T18:39:08.212Z,22.85
2022-12-01T18:41:36.369Z,23.02
2022-12-01T18:44:04.211Z,22.90
2022-12-01T18:46:32.293Z,21.15
2022-12-01T18:49:02.176Z,21.23
2022-12-01T18:51:31.290Z,21.65
2022-12-01T18:54:00.366Z,22.15
2022-12-01T18:56:28.444Z,22.63
2022-12-01T18:58:57.250Z,22.23
2022-12-01T19:01:44.025Z,22.67
2022-12-01T19:04:11.848Z,22.42
2022-12-01T19:06:40.346Z,22.80
2022-12-01T19:09:09.933Z,21.50
2022-12-01T19:11:40.338Z,20.95
2022-12-01T19:14:12.695Z,21.15
2022-12-01T19:16:39.992Z,19.60
2022-12-01T19:19:07.399Z,18.77
2022-12-01T19:21:34.589Z,19.45
2022-12-01T19:24:01.717Z,17.90
2022-12-01T19:26:28.875Z,17.08
2022-12-01T19:28:56.000Z,16.65
2022-12-01T19:31:24.743Z,17.27
2022-12-01T19:33:53.533Z,18.55
2022-12-01T19:36:24.050Z,18.27
2022-12-01T19:38:52.485Z,18.95
2022-12-01T19:41:20.749Z,18.85
2022-12-01T19:43:48.287Z,20.02
2022-12-01T19:46:19.440Z,21.00
2022-12-01T19:48:47.908Z,21.55
2022-12-01T19:51:27.625Z,20.95
2022-12-01T19:53:55.348Z,23.17
2022-12-01T19:56:23.173Z,25.70
2022-12-01T19:58:50.704Z,23.08
2022-12-01T20:01:19.464Z,26.52
2022-12-01T20:03:51.652Z,27.47
2022-12-01T20:06:24.688Z,30.38
2022-12-01T20:08:52.790Z,28.95
2022-12-01T20:11:20.117Z,29.37
2022-12-01T20:13:48.194Z,29.77
2022-12-01T20:16:18.327Z,29.05
2022-12-01T20:18:46.377Z,29.65
2022-12-01T20:21:25.998Z,29.95
2022-12-01T20:23:58.809Z,30.10
2022-12-01T20:26:39.130Z,29.17
2022-12-01T20:29:11.169Z,29.77
2022-12-01T20:31:39.278Z,29.90
2022-12-01T20:34:10.695Z,29.40
2022-12-01T20:36:38.656Z,29.58
2022-12-01T20:39:07.428Z,30.55
2022-12-01T20:41:35.572Z,30.08
2022-12-01T20:44:07.281Z,29.33
2022-12-01T20:46:36.634Z,32.72
2022-12-01T20:49:04.998Z,33.92
2022-12-01T20:51:33.328Z,34.55
2022-12-01T20:56:49.671Z,33.95
2022-12-01T20:59:16.886Z,34.00
2022-12-01T21:01:44.064Z,35.95
2022-12-01T21:04:11.296Z,35.88
2022-12-01T21:06:38.519Z,35.03
2022-12-01T21:09:07.414Z,34.58
2022-12-01T21:12:02.224Z,34.85
2022-12-01T21:14:37.707Z,39.80
2022-12-01T21:17:31.887Z,34.80
2022-12-01T21:20:17.874Z,35.85
2022-12-01T21:22:46.052Z,37.07
2022-12-01T21:25:25.554Z,37.90
2022-12-01T21:27:57.929Z,36.08
2022-12-01T21:30:29.856Z,37.08
2022-12-01T21:33:20.052Z,36.65
2022-12-01T21:35:50.580Z,37.13
2022-12-01T21:38:21.963Z,37.03
2022-12-01T21:40:49.510Z,39.10
2022-12-01T21:43:22.533Z,38.30
2022-12-01T21:45:57.959Z,38.83
2022-12-01T21:48:25.581Z,41.20
2022-12-01T21:51:01.784Z,41.50
2022-12-01T21:53:36.633Z,40.93
2022-12-01T21:56:03.913Z,38.03
2022-12-01T21:58:37.001Z,42.15
2022-12-01T22:01:19.356Z,44.03
2022-12-01T22:03:48.063Z,43.42
2022-12-01T22:06:37.019Z,45.53
2022-12-01T22:09:22.910Z,45.15
2022-12-01T22:12:12.594Z,46.75
2022-12-01T22:14:39.845Z,49.40
2022-12-01T22:17:06.939Z,49.10
2022-12-01T22:19:37.896Z,50.97
2022-12-01T22:22:10.885Z,48.17
2022-12-01T22:24:47.689Z,49.10
2022-12-01T22:27:31.240Z,48.83
2022-12-01T22:30:02.806Z,49.75
2022-12-01T22:32:50.938Z,50.63
2022-12-01T22:35:28.123Z,49.88
2022-12-01T22:38:09.484Z,50.97
2022-12-01T22:40:36.582Z,52.53
2022-12-01T22:43:25.800Z,49.55
2022-12-01T22:46:17.451Z,51.35
2022-12-01T22:48:50.660Z,49.97
2022-12-01T22:51:31.677Z,52.33
2022-12-01T22:54:07.647Z,52.10
2022-12-01T22:56:47.304Z,52.40
2022-12-01T22:59:20.682Z,52.20
2022-12-01T23:01:53.075Z,51.45
2022-12-01T23:04:26.535Z,52.15
2022-12-01T23:07:31.299Z,52.47
2022-12-01T23:10:20.205Z,53.90
2022-12-01T23:12:49.985Z,53.10
2022-12-01T23:15:50.786Z,54.00
2022-12-01T23:18:27.930Z,55.13
2022-12-01T23:21:00.334Z,56.65
2022-12-01T23:23:27.480Z,56.28
2022-12-01T23:25:55.466Z,58.05
2022-12-01T23:28:22.845Z,57.97
2022-12-01T23:30:54.054Z,58.13
2022-12-01T23:33:22.464Z,59.67
2022-12-01T23:35:54.998Z,59.80
2022-12-01T23:38:31.399Z,61.80
2022-12-01T23:41:04.587Z,59.00
2022-12-01T23:43:38.973Z,61.70
2022-12-01T23:46:18.311Z,60.05
2022-12-01T23:49:01.072Z,62.80
2022-12-01T23:51:35.508Z,59.97
2022-12-01T23:54:18.776Z,61.65
2022-12-01T23:56:51.187Z,59.53
2022-12-01T23:59:19.363Z,58.80
